sensor_id;sensor_type;location;lat;lon;timestamp;temperature;humidity
14727;DHT22;7454;51.256;8.176;2023-07-29T00:01:34;17.80;82.20
14727;DHT22;7454;51.256;8.176;2023-07-29T00:04:00;17.80;82.20
14727;DHT22;7454;51.256;8.176;2023-07-29T00:06:26;17.80;82.30
14727;DHT22;7454;51.256;8.176;2023-07-29T00:08:52;17.80;82.10
14727;DHT22;7454;51.256;8.176;2023-07-29T00:11:17;17.80;82.10
14727;DHT22;7454;51.256;8.176;2023-07-29T00:13:43;17.60;81.80
14727;DHT22;7454;51.256;8.176;2023-07-29T00:16:09;17.70;82.00
14727;DHT22;7454;51.256;8.176;2023-07-29T00:18:35;17.70;82.10
14727;DHT22;7454;51.256;8.176;2023-07-29T00:21:01;17.70;82.20
14727;DHT22;7454;51.256;8.176;2023-07-29T00:23:27;17.70;82.20
14727;DHT22;7454;51.256;8.176;2023-07-29T00:25:52;17.70;82.30
14727;DHT22;7454;51.256;8.176;2023-07-29T00:28:18;17.80;82.40
14727;DHT22;7454;51.256;8.176;2023-07-29T00:30:44;17.70;82.30
14727;DHT22;7454;51.256;8.176;2023-07-29T00:33:09;17.80;82.50
14727;DHT22;7454;51.256;8.176;2023-07-29T00:35:37;17.90;82.50
14727;DHT22;7454;51.256;8.176;2023-07-29T00:38:03;17.90;82.60
14727;DHT22;7454;51.256;8.176;2023-07-29T00:40:28;17.80;82.60
14727;DHT22;7454;51.256;8.176;2023-07-29T00:42:55;17.90;82.70
14727;DHT22;7454;51.256;8.176;2023-07-29T00:45:21;18.00;82.60
14727;DHT22;7454;51.256;8.176;2023-07-29T00:47:47;17.80;82.60
14727;DHT22;7454;51.256;8.176;2023-07-29T00:50:13;17.90;82.60
14727;DHT22;7454;51.256;8.176;2023-07-29T00:52:41;17.90;82.60
14727;DHT22;7454;51.256;8.176;2023-07-29T00:55:07;17.90;82.60
14727;DHT22;7454;51.256;8.176;2023-07-29T00:57:33;17.90;82.70
14727;DHT22;7454;51.256;8.176;2023-07-29T01:00:00;17.90;82.60
14727;DHT22;7454;51.256;8.176;2023-07-29T01:02:26;17.90;82.70
14727;DHT22;7454;51.256;8.176;2023-07-29T01:04:55;18.00;82.80
14727;DHT22;7454;51.256;8.176;2023-07-29T01:10:04;18.10;82.80
14727;DHT22;7454;51.256;8.176;2023-07-29T01:15:16;18.10;82.70
14727;DHT22;7454;51.256;8.176;2023-07-29T01:17:46;18.10;82.70
14727;DHT22;7454;51.256;8.176;2023-07-29T01:20:14;18.10;82.80
14727;DHT22;7454;51.256;8.176;2023-07-29T01:22:40;18.10;82.70
14727;DHT22;7454;51.256;8.176;2023-07-29T01:25:07;18.20;82.70
14727;DHT22;7454;51.256;8.176;2023-07-29T01:27:32;18.10;82.70
14727;DHT22;7454;51.256;8.176;2023-07-29T01:29:59;18.10;82.80
14727;DHT22;7454;51.256;8.176;2023-07-29T01:32:28;18.10;82.80
14727;DHT22;7454;51.256;8.176;2023-07-29T01:35:09;18.10;82.70
14727;DHT22;7454;51.256;8.176;2023-07-29T01:37:39;18.10;82.70
14727;DHT22;7454;51.256;8.176;2023-07-29T01:40:07;18.10;82.80
14727;DHT22;7454;51.256;8.176;2023-07-29T01:42:34;18.10;82.80
14727;DHT22;7454;51.256;8.176;2023-07-29T01:45:00;18.10;82.80
14727;DHT22;7454;51.256;8.176;2023-07-29T01:47:26;18.10;82.80
14727;DHT22;7454;51.256;8.176;2023-07-29T01:49:54;18.00;83.00
14727;DHT22;7454;51.256;8.176;2023-07-29T01:52:19;18.10;82.90
14727;DHT22;7454;51.256;8.176;2023-07-29T01:54:45;18.10;82.90
14727;DHT22;7454;51.256;8.176;2023-07-29T01:57:11;18.20;82.90
14727;DHT22;7454;51.256;8.176;2023-07-29T01:59:37;18.10;82.80
14727;DHT22;7454;51.256;8.176;2023-07-29T02:02:02;18.20;82.80
14727;DHT22;7454;51.256;8.176;2023-07-29T02:04:28;18.10;82.80
14727;DHT22;7454;51.256;8.176;2023-07-29T02:06:54;18.10;82.80
14727;DHT22;7454;51.256;8.176;2023-07-29T02:09:20;18.10;82.80
14727;DHT22;7454;51.256;8.176;2023-07-29T02:11:46;18.10;82.90
14727;DHT22;7454;51.256;8.176;2023-07-29T02:14:11;18.10;82.90
14727;DHT22;7454;51.256;8.176;2023-07-29T02:16:37;18.10;82.90
14727;DHT22;7454;51.256;8.176;2023-07-29T02:19:04;18.10;82.90
14727;DHT22;7454;51.256;8.176;2023-07-29T02:21:30;18.10;83.00
14727;DHT22;7454;51.256;8.176;2023-07-29T02:23:55;17.90;82.90
14727;DHT22;7454;51.256;8.176;2023-07-29T02:26:21;18.00;82.90
14727;DHT22;7454;51.256;8.176;2023-07-29T02:28:47;18.10;82.90
14727;DHT22;7454;51.256;8.176;2023-07-29T02:33:44;18.10;83.00
14727;DHT22;7454;51.256;8.176;2023-07-29T02:36:11;18.20;83.10
14727;DHT22;7454;51.256;8.176;2023-07-29T02:38:37;18.20;83.10
14727;DHT22;7454;51.256;8.176;2023-07-29T02:41:03;18.10;83.10
14727;DHT22;7454;51.256;8.176;2023-07-29T02:43:28;18.00;83.10
14727;DHT22;7454;51.256;8.176;2023-07-29T02:45:54;18.10;83.20
14727;DHT22;7454;51.256;8.176;2023-07-29T02:48:20;18.10;83.20
14727;DHT22;7454;51.256;8.176;2023-07-29T02:50:45;18.10;83.10
14727;DHT22;7454;51.256;8.176;2023-07-29T02:53:11;18.00;83.10
14727;DHT22;7454;51.256;8.176;2023-07-29T02:55:40;18.20;83.20
14727;DHT22;7454;51.256;8.176;2023-07-29T02:58:06;18.10;83.10
14727;DHT22;7454;51.256;8.176;2023-07-29T03:00:32;18.20;83.00
14727;DHT22;7454;51.256;8.176;2023-07-29T03:02:58;18.00;83.00
14727;DHT22;7454;51.256;8.176;2023-07-29T03:05:27;18.20;83.10
14727;DHT22;7454;51.256;8.176;2023-07-29T03:07:53;18.10;83.10
14727;DHT22;7454;51.256;8.176;2023-07-29T03:10:18;18.00;83.20
14727;DHT22;7454;51.256;8.176;2023-07-29T03:12:44;18.10;83.20
14727;DHT22;7454;51.256;8.176;2023-07-29T03:15:11;18.10;83.20
14727;DHT22;7454;51.256;8.176;2023-07-29T03:17:37;18.00;83.30
14727;DHT22;7454;51.256;8.176;2023-07-29T03:20:03;18.10;83.30
14727;DHT22;7454;51.256;8.176;2023-07-29T03:22:28;18.10;83.30
14727;DHT22;7454;51.256;8.176;2023-07-29T03:24:54;18.00;83.20
14727;DHT22;7454;51.256;8.176;2023-07-29T03:27:20;18.00;83.10
14727;DHT22;7454;51.256;8.176;2023-07-29T03:29:45;18.10;83.20
14727;DHT22;7454;51.256;8.176;2023-07-29T03:32:11;18.10;83.20
14727;DHT22;7454;51.256;8.176;2023-07-29T03:34:37;18.00;83.20
14727;DHT22;7454;51.256;8.176;2023-07-29T03:37:03;18.10;83.30
14727;DHT22;7454;51.256;8.176;2023-07-29T03:39:29;18.10;83.20
14727;DHT22;7454;51.256;8.176;2023-07-29T03:41:55;18.10;83.20
14727;DHT22;7454;51.256;8.176;2023-07-29T03:44:20;18.20;83.30
14727;DHT22;7454;51.256;8.176;2023-07-29T03:46:46;18.00;83.30
14727;DHT22;7454;51.256;8.176;2023-07-29T03:49:12;18.10;83.30
14727;DHT22;7454;51.256;8.176;2023-07-29T03:51:38;18.20;83.40
14727;DHT22;7454;51.256;8.176;2023-07-29T03:54:04;18.10;83.40
14727;DHT22;7454;51.256;8.176;2023-07-29T03:56:30;18.20;83.40
14727;DHT22;7454;51.256;8.176;2023-07-29T03:59:05;18.20;83.30
14727;DHT22;7454;51.256;8.176;2023-07-29T04:01:31;18.10;83.40
14727;DHT22;7454;51.256;8.176;2023-07-29T04:03:58;18.20;83.40
14727;DHT22;7454;51.256;8.176;2023-07-29T04:06:24;18.10;83.40
14727;DHT22;7454;51.256;8.176;2023-07-29T04:08:50;18.10;83.40
14727;DHT22;7454;51.256;8.176;2023-07-29T04:11:16;18.10;83.40
14727;DHT22;7454;51.256;8.176;2023-07-29T04:13:41;18.10;83.40
14727;DHT22;7454;51.256;8.176;2023-07-29T04:16:07;18.10;83.50
14727;DHT22;7454;51.256;8.176;2023-07-29T04:18:33;18.10;83.50
14727;DHT22;7454;51.256;8.176;2023-07-29T04:20:58;18.10;83.50
14727;DHT22;7454;51.256;8.176;2023-07-29T04:23:24;18.10;83.50
14727;DHT22;7454;51.256;8.176;2023-07-29T04:25:50;18.10;83.50
14727;DHT22;7454;51.256;8.176;2023-07-29T04:28:15;18.10;83.60
14727;DHT22;7454;51.256;8.176;2023-07-29T04:30:41;18.10;83.60
14727;DHT22;7454;51.256;8.176;2023-07-29T04:33:07;18.10;83.50
14727;DHT22;7454;51.256;8.176;2023-07-29T04:35:32;18.30;83.20
14727;DHT22;7454;51.256;8.176;2023-07-29T04:37:58;18.10;83.10
14727;DHT22;7454;51.256;8.176;2023-07-29T04:40:24;18.10;83.00
14727;DHT22;7454;51.256;8.176;2023-07-29T04:42:50;18.10;82.80
14727;DHT22;7454;51.256;8.176;2023-07-29T04:45:16;18.10;82.80
14727;DHT22;7454;51.256;8.176;2023-07-29T04:47:42;18.20;82.90
14727;DHT22;7454;51.256;8.176;2023-07-29T04:50:08;18.10;82.80
14727;DHT22;7454;51.256;8.176;2023-07-29T04:52:34;18.10;82.80
14727;DHT22;7454;51.256;8.176;2023-07-29T04:54:59;18.00;82.70
14727;DHT22;7454;51.256;8.176;2023-07-29T04:57:25;18.10;82.60
14727;DHT22;7454;51.256;8.176;2023-07-29T04:59:51;18.10;82.70
14727;DHT22;7454;51.256;8.176;2023-07-29T05:02:17;18.10;82.60
14727;DHT22;7454;51.256;8.176;2023-07-29T05:04:42;18.20;82.70
14727;DHT22;7454;51.256;8.176;2023-07-29T05:07:09;18.20;82.60
14727;DHT22;7454;51.256;8.176;2023-07-29T05:09:34;18.10;82.50
14727;DHT22;7454;51.256;8.176;2023-07-29T05:12:00;18.10;82.30
14727;DHT22;7454;51.256;8.176;2023-07-29T05:14:26;18.10;82.30
14727;DHT22;7454;51.256;8.176;2023-07-29T05:16:51;18.10;82.30
14727;DHT22;7454;51.256;8.176;2023-07-29T05:19:18;18.10;82.30
14727;DHT22;7454;51.256;8.176;2023-07-29T05:21:43;18.10;82.30
14727;DHT22;7454;51.256;8.176;2023-07-29T05:24:09;18.10;82.30
14727;DHT22;7454;51.256;8.176;2023-07-29T05:26:34;18.00;82.40
14727;DHT22;7454;51.256;8.176;2023-07-29T05:29:00;18.00;82.50
14727;DHT22;7454;51.256;8.176;2023-07-29T05:31:26;17.90;82.70
14727;DHT22;7454;51.256;8.176;2023-07-29T05:33:52;17.90;82.90
14727;DHT22;7454;51.256;8.176;2023-07-29T05:36:17;18.00;83.00
14727;DHT22;7454;51.256;8.176;2023-07-29T05:38:43;17.90;83.10
14727;DHT22;7454;51.256;8.176;2023-07-29T05:41:09;17.90;83.10
14727;DHT22;7454;51.256;8.176;2023-07-29T05:43:34;18.00;83.20
14727;DHT22;7454;51.256;8.176;2023-07-29T05:46:00;18.00;83.20
14727;DHT22;7454;51.256;8.176;2023-07-29T05:48:26;17.90;83.20
14727;DHT22;7454;51.256;8.176;2023-07-29T05:50:51;17.90;83.10
14727;DHT22;7454;51.256;8.176;2023-07-29T05:53:17;18.10;83.20
14727;DHT22;7454;51.256;8.176;2023-07-29T05:55:43;18.10;83.20
14727;DHT22;7454;51.256;8.176;2023-07-29T05:58:09;18.10;83.10
14727;DHT22;7454;51.256;8.176;2023-07-29T06:00:35;18.10;83.10
14727;DHT22;7454;51.256;8.176;2023-07-29T06:03:01;18.10;83.20
14727;DHT22;7454;51.256;8.176;2023-07-29T06:05:27;18.20;83.10
14727;DHT22;7454;51.256;8.176;2023-07-29T06:07:53;18.20;83.00
14727;DHT22;7454;51.256;8.176;2023-07-29T06:10:19;18.20;83.10
14727;DHT22;7454;51.256;8.176;2023-07-29T06:12:45;18.20;83.20
14727;DHT22;7454;51.256;8.176;2023-07-29T06:15:11;18.40;83.20
14727;DHT22;7454;51.256;8.176;2023-07-29T06:17:38;18.30;83.20
14727;DHT22;7454;51.256;8.176;2023-07-29T06:20:04;18.10;83.10
14727;DHT22;7454;51.256;8.176;2023-07-29T06:22:31;18.20;83.20
14727;DHT22;7454;51.256;8.176;2023-07-29T06:24:57;18.30;83.00
14727;DHT22;7454;51.256;8.176;2023-07-29T06:27:23;18.10;82.90
14727;DHT22;7454;51.256;8.176;2023-07-29T06:29:50;18.10;83.00
14727;DHT22;7454;51.256;8.176;2023-07-29T06:32:16;18.30;83.20
14727;DHT22;7454;51.256;8.176;2023-07-29T06:34:41;18.60;83.10
14727;DHT22;7454;51.256;8.176;2023-07-29T06:37:07;18.30;83.00
14727;DHT22;7454;51.256;8.176;2023-07-29T06:39:33;18.40;83.00
14727;DHT22;7454;51.256;8.176;2023-07-29T06:42:02;18.60;83.00
14727;DHT22;7454;51.256;8.176;2023-07-29T06:44:27;18.50;82.90
14727;DHT22;7454;51.256;8.176;2023-07-29T06:46:53;18.50;82.70
14727;DHT22;7454;51.256;8.176;2023-07-29T06:49:19;18.60;82.70
14727;DHT22;7454;51.256;8.176;2023-07-29T06:51:44;18.50;82.70
14727;DHT22;7454;51.256;8.176;2023-07-29T06:54:10;18.60;82.70
14727;DHT22;7454;51.256;8.176;2023-07-29T06:56:36;18.60;82.90
14727;DHT22;7454;51.256;8.176;2023-07-29T06:59:02;18.60;83.00
14727;DHT22;7454;51.256;8.176;2023-07-29T07:01:27;18.60;83.10
14727;DHT22;7454;51.256;8.176;2023-07-29T07:03:53;18.70;83.10
14727;DHT22;7454;51.256;8.176;2023-07-29T07:06:22;18.50;82.90
14727;DHT22;7454;51.256;8.176;2023-07-29T07:08:50;18.60;82.80
14727;DHT22;7454;51.256;8.176;2023-07-29T07:11:16;18.70;82.80
14727;DHT22;7454;51.256;8.176;2023-07-29T07:13:41;18.60;82.90
14727;DHT22;7454;51.256;8.176;2023-07-29T07:16:07;18.60;82.70
14727;DHT22;7454;51.256;8.176;2023-07-29T07:18:33;18.60;82.80
14727;DHT22;7454;51.256;8.176;2023-07-29T07:20:58;18.80;82.90
14727;DHT22;7454;51.256;8.176;2023-07-29T07:23:24;18.80;82.50
14727;DHT22;7454;51.256;8.176;2023-07-29T07:25:49;18.80;82.30
14727;DHT22;7454;51.256;8.176;2023-07-29T07:28:15;18.70;82.30
14727;DHT22;7454;51.256;8.176;2023-07-29T07:30:41;18.80;82.30
14727;DHT22;7454;51.256;8.176;2023-07-29T07:33:07;18.80;82.50
14727;DHT22;7454;51.256;8.176;2023-07-29T07:35:33;18.80;82.20
14727;DHT22;7454;51.256;8.176;2023-07-29T07:37:58;18.80;82.10
14727;DHT22;7454;51.256;8.176;2023-07-29T07:40:27;18.80;82.20
14727;DHT22;7454;51.256;8.176;2023-07-29T07:42:52;18.90;82.20
14727;DHT22;7454;51.256;8.176;2023-07-29T07:45:18;18.80;82.30
14727;DHT22;7454;51.256;8.176;2023-07-29T07:47:44;19.10;82.20
14727;DHT22;7454;51.256;8.176;2023-07-29T07:50:10;19.00;81.80
14727;DHT22;7454;51.256;8.176;2023-07-29T07:52:36;19.10;81.60
14727;DHT22;7454;51.256;8.176;2023-07-29T07:55:01;19.00;81.30
14727;DHT22;7454;51.256;8.176;2023-07-29T07:57:27;19.10;81.20
14727;DHT22;7454;51.256;8.176;2023-07-29T07:59:53;19.10;81.30
14727;DHT22;7454;51.256;8.176;2023-07-29T08:02:18;19.20;81.20
14727;DHT22;7454;51.256;8.176;2023-07-29T08:04:44;19.20;81.40
14727;DHT22;7454;51.256;8.176;2023-07-29T08:07:10;19.30;81.20
14727;DHT22;7454;51.256;8.176;2023-07-29T08:09:35;19.30;81.30
14727;DHT22;7454;51.256;8.176;2023-07-29T08:12:01;19.50;81.40
14727;DHT22;7454;51.256;8.176;2023-07-29T08:14:27;19.50;81.30
14727;DHT22;7454;51.256;8.176;2023-07-29T08:16:52;19.60;81.30
14727;DHT22;7454;51.256;8.176;2023-07-29T08:19:18;19.60;81.10
14727;DHT22;7454;51.256;8.176;2023-07-29T08:21:43;19.70;80.90
14727;DHT22;7454;51.256;8.176;2023-07-29T08:24:09;19.80;80.90
14727;DHT22;7454;51.256;8.176;2023-07-29T08:26:35;19.90;80.70
14727;DHT22;7454;51.256;8.176;2023-07-29T08:29:00;19.90;80.90
14727;DHT22;7454;51.256;8.176;2023-07-29T08:31:26;19.90;80.70
14727;DHT22;7454;51.256;8.176;2023-07-29T08:33:51;19.80;80.70
14727;DHT22;7454;51.256;8.176;2023-07-29T08:36:17;19.90;80.80
14727;DHT22;7454;51.256;8.176;2023-07-29T08:38:43;19.90;80.70
14727;DHT22;7454;51.256;8.176;2023-07-29T08:41:13;20.00;80.60
14727;DHT22;7454;51.256;8.176;2023-07-29T08:43:43;19.90;80.50
14727;DHT22;7454;51.256;8.176;2023-07-29T08:46:11;19.70;80.70
14727;DHT22;7454;51.256;8.176;2023-07-29T08:48:40;19.90;80.70
14727;DHT22;7454;51.256;8.176;2023-07-29T08:51:07;20.00;80.60
14727;DHT22;7454;51.256;8.176;2023-07-29T08:53:34;20.00;80.50
14727;DHT22;7454;51.256;8.176;2023-07-29T08:56:00;19.90;80.40
14727;DHT22;7454;51.256;8.176;2023-07-29T08:58:26;19.90;80.40
14727;DHT22;7454;51.256;8.176;2023-07-29T09:00:52;20.00;80.70
14727;DHT22;7454;51.256;8.176;2023-07-29T09:03:19;20.00;80.80
14727;DHT22;7454;51.256;8.176;2023-07-29T09:05:45;20.00;80.80
14727;DHT22;7454;51.256;8.176;2023-07-29T09:08:11;20.10;80.60
14727;DHT22;7454;51.256;8.176;2023-07-29T09:10:37;20.10;80.50
14727;DHT22;7454;51.256;8.176;2023-07-29T09:13:03;20.00;80.60
14727;DHT22;7454;51.256;8.176;2023-07-29T09:15:30;20.00;80.40
14727;DHT22;7454;51.256;8.176;2023-07-29T09:17:57;20.10;80.40
14727;DHT22;7454;51.256;8.176;2023-07-29T09:20:23;19.80;80.20
14727;DHT22;7454;51.256;8.176;2023-07-29T09:22:50;19.90;80.30
14727;DHT22;7454;51.256;8.176;2023-07-29T09:25:16;19.90;80.70
14727;DHT22;7454;51.256;8.176;2023-07-29T09:27:48;20.00;80.60
14727;DHT22;7454;51.256;8.176;2023-07-29T09:30:16;20.10;80.70
14727;DHT22;7454;51.256;8.176;2023-07-29T09:32:42;20.10;80.50
14727;DHT22;7454;51.256;8.176;2023-07-29T09:35:16;20.20;80.60
14727;DHT22;7454;51.256;8.176;2023-07-29T09:37:43;20.20;80.40
14727;DHT22;7454;51.256;8.176;2023-07-29T09:40:13;20.20;80.30
14727;DHT22;7454;51.256;8.176;2023-07-29T09:42:39;20.20;80.10
14727;DHT22;7454;51.256;8.176;2023-07-29T09:45:05;20.20;79.90
14727;DHT22;7454;51.256;8.176;2023-07-29T09:47:31;20.30;79.90
14727;DHT22;7454;51.256;8.176;2023-07-29T09:49:57;20.30;79.60
14727;DHT22;7454;51.256;8.176;2023-07-29T09:52:22;20.30;79.30
14727;DHT22;7454;51.256;8.176;2023-07-29T09:54:48;20.30;79.40
14727;DHT22;7454;51.256;8.176;2023-07-29T09:57:14;20.20;79.50
14727;DHT22;7454;51.256;8.176;2023-07-29T09:59:42;20.30;79.40
14727;DHT22;7454;51.256;8.176;2023-07-29T10:02:13;20.30;79.30
14727;DHT22;7454;51.256;8.176;2023-07-29T10:04:41;20.30;79.30
14727;DHT22;7454;51.256;8.176;2023-07-29T10:07:07;20.40;79.30
14727;DHT22;7454;51.256;8.176;2023-07-29T10:09:33;20.50;79.40
14727;DHT22;7454;51.256;8.176;2023-07-29T10:11:59;20.50;79.30
14727;DHT22;7454;51.256;8.176;2023-07-29T10:14:25;20.70;79.00
14727;DHT22;7454;51.256;8.176;2023-07-29T10:16:53;20.80;79.30
14727;DHT22;7454;51.256;8.176;2023-07-29T10:19:19;20.80;78.90
14727;DHT22;7454;51.256;8.176;2023-07-29T10:21:45;21.00;78.80
14727;DHT22;7454;51.256;8.176;2023-07-29T10:24:14;21.10;78.80
14727;DHT22;7454;51.256;8.176;2023-07-29T10:26:41;21.10;78.80
14727;DHT22;7454;51.256;8.176;2023-07-29T10:29:10;21.10;78.50
14727;DHT22;7454;51.256;8.176;2023-07-29T10:31:38;21.10;78.70
14727;DHT22;7454;51.256;8.176;2023-07-29T10:34:06;21.20;78.30
14727;DHT22;7454;51.256;8.176;2023-07-29T10:36:32;21.20;78.20
14727;DHT22;7454;51.256;8.176;2023-07-29T10:38:57;21.20;77.80
14727;DHT22;7454;51.256;8.176;2023-07-29T10:41:23;21.10;77.90
14727;DHT22;7454;51.256;8.176;2023-07-29T10:43:49;21.20;77.90
14727;DHT22;7454;51.256;8.176;2023-07-29T10:46:18;21.20;77.80
14727;DHT22;7454;51.256;8.176;2023-07-29T10:53:56;21.20;77.50
14727;DHT22;7454;51.256;8.176;2023-07-29T10:56:30;21.20;77.60
14727;DHT22;7454;51.256;8.176;2023-07-29T11:01:42;21.30;77.30
14727;DHT22;7454;51.256;8.176;2023-07-29T11:09:45;21.30;77.60
14727;DHT22;7454;51.256;8.176;2023-07-29T11:17:36;21.40;77.80
14727;DHT22;7454;51.256;8.176;2023-07-29T11:20:04;21.50;77.60
14727;DHT22;7454;51.256;8.176;2023-07-29T11:22:31;21.60;77.60
14727;DHT22;7454;51.256;8.176;2023-07-29T11:24:56;21.60;77.30
14727;DHT22;7454;51.256;8.176;2023-07-29T11:27:22;21.70;77.60
14727;DHT22;7454;51.256;8.176;2023-07-29T11:29:48;21.80;77.40
14727;DHT22;7454;51.256;8.176;2023-07-29T11:32:13;21.80;77.20
14727;DHT22;7454;51.256;8.176;2023-07-29T11:34:40;21.80;77.10
14727;DHT22;7454;51.256;8.176;2023-07-29T11:37:06;21.70;77.10
14727;DHT22;7454;51.256;8.176;2023-07-29T11:39:32;21.70;77.20
14727;DHT22;7454;51.256;8.176;2023-07-29T11:41:58;21.70;77.30
14727;DHT22;7454;51.256;8.176;2023-07-29T11:44:24;21.70;77.40
14727;DHT22;7454;51.256;8.176;2023-07-29T11:46:50;21.70;77.40
14727;DHT22;7454;51.256;8.176;2023-07-29T11:49:16;21.80;77.30
14727;DHT22;7454;51.256;8.176;2023-07-29T11:51:41;21.70;77.00
14727;DHT22;7454;51.256;8.176;2023-07-29T11:54:08;21.70;77.00
14727;DHT22;7454;51.256;8.176;2023-07-29T11:56:34;21.70;77.40
14727;DHT22;7454;51.256;8.176;2023-07-29T11:59:01;21.50;77.00
14727;DHT22;7454;51.256;8.176;2023-07-29T12:01:28;21.50;77.10
14727;DHT22;7454;51.256;8.176;2023-07-29T12:03:54;21.40;77.20
14727;DHT22;7454;51.256;8.176;2023-07-29T12:06:21;21.50;77.10
14727;DHT22;7454;51.256;8.176;2023-07-29T12:08:49;21.50;77.50
14727;DHT22;7454;51.256;8.176;2023-07-29T12:11:14;21.50;77.20
14727;DHT22;7454;51.256;8.176;2023-07-29T12:13:41;21.50;77.30
14727;DHT22;7454;51.256;8.176;2023-07-29T12:16:07;21.50;77.20
14727;DHT22;7454;51.256;8.176;2023-07-29T12:18:32;21.50;77.10
14727;DHT22;7454;51.256;8.176;2023-07-29T12:20:59;21.50;77.30
14727;DHT22;7454;51.256;8.176;2023-07-29T12:23:25;21.50;77.20
14727;DHT22;7454;51.256;8.176;2023-07-29T12:25:51;21.50;76.90
14727;DHT22;7454;51.256;8.176;2023-07-29T12:28:22;21.50;77.10
14727;DHT22;7454;51.256;8.176;2023-07-29T12:30:48;21.60;77.30
14727;DHT22;7454;51.256;8.176;2023-07-29T12:33:29;21.70;77.50
14727;DHT22;7454;51.256;8.176;2023-07-29T12:35:58;21.70;77.40
14727;DHT22;7454;51.256;8.176;2023-07-29T12:38:27;21.80;77.40
14727;DHT22;7454;51.256;8.176;2023-07-29T12:40:54;21.80;77.30
14727;DHT22;7454;51.256;8.176;2023-07-29T12:43:20;21.90;77.20
14727;DHT22;7454;51.256;8.176;2023-07-29T12:45:45;21.80;77.10
14727;DHT22;7454;51.256;8.176;2023-07-29T12:48:11;21.80;77.00
14727;DHT22;7454;51.256;8.176;2023-07-29T12:50:37;21.70;76.80
14727;DHT22;7454;51.256;8.176;2023-07-29T12:53:07;21.60;77.10
14727;DHT22;7454;51.256;8.176;2023-07-29T12:55:35;21.60;77.30
14727;DHT22;7454;51.256;8.176;2023-07-29T12:58:01;21.60;77.10
14727;DHT22;7454;51.256;8.176;2023-07-29T13:00:27;21.60;77.60
14727;DHT22;7454;51.256;8.176;2023-07-29T13:02:53;21.60;77.10
14727;DHT22;7454;51.256;8.176;2023-07-29T13:05:19;21.60;77.20
14727;DHT22;7454;51.256;8.176;2023-07-29T13:07:45;21.60;77.10
14727;DHT22;7454;51.256;8.176;2023-07-29T13:10:11;21.60;77.10
14727;DHT22;7454;51.256;8.176;2023-07-29T13:12:37;21.70;77.30
14727;DHT22;7454;51.256;8.176;2023-07-29T13:15:03;21.70;76.90
14727;DHT22;7454;51.256;8.176;2023-07-29T13:17:29;21.60;77.30
14727;DHT22;7454;51.256;8.176;2023-07-29T13:19:55;21.60;77.10
14727;DHT22;7454;51.256;8.176;2023-07-29T13:22:20;21.60;76.80
14727;DHT22;7454;51.256;8.176;2023-07-29T13:24:46;21.50;76.80
14727;DHT22;7454;51.256;8.176;2023-07-29T13:27:12;21.50;76.80
14727;DHT22;7454;51.256;8.176;2023-07-29T13:29:38;21.50;76.60
14727;DHT22;7454;51.256;8.176;2023-07-29T13:32:05;21.60;76.70
14727;DHT22;7454;51.256;8.176;2023-07-29T13:34:31;21.60;76.90
14727;DHT22;7454;51.256;8.176;2023-07-29T13:36:57;21.60;77.00
14727;DHT22;7454;51.256;8.176;2023-07-29T13:39:23;21.60;77.00
14727;DHT22;7454;51.256;8.176;2023-07-29T13:41:48;21.60;76.90
14727;DHT22;7454;51.256;8.176;2023-07-29T13:44:14;21.50;76.60
14727;DHT22;7454;51.256;8.176;2023-07-29T13:46:40;21.60;76.80
14727;DHT22;7454;51.256;8.176;2023-07-29T13:49:05;21.50;76.60
14727;DHT22;7454;51.256;8.176;2023-07-29T13:51:31;21.50;76.90
14727;DHT22;7454;51.256;8.176;2023-07-29T13:53:57;21.50;76.70
14727;DHT22;7454;51.256;8.176;2023-07-29T13:56:22;21.50;76.70
14727;DHT22;7454;51.256;8.176;2023-07-29T13:58:48;21.60;76.80
14727;DHT22;7454;51.256;8.176;2023-07-29T14:01:14;21.50;76.30
14727;DHT22;7454;51.256;8.176;2023-07-29T14:03:39;21.40;76.70
14727;DHT22;7454;51.256;8.176;2023-07-29T14:06:05;21.50;76.80
14727;DHT22;7454;51.256;8.176;2023-07-29T14:08:31;21.50;76.70
14727;DHT22;7454;51.256;8.176;2023-07-29T14:10:56;21.50;76.80
14727;DHT22;7454;51.256;8.176;2023-07-29T14:13:22;21.60;77.10
14727;DHT22;7454;51.256;8.176;2023-07-29T14:15:48;21.60;76.90
14727;DHT22;7454;51.256;8.176;2023-07-29T14:18:13;21.70;77.00
14727;DHT22;7454;51.256;8.176;2023-07-29T14:20:39;21.70;76.80
14727;DHT22;7454;51.256;8.176;2023-07-29T14:23:04;21.70;76.60
14727;DHT22;7454;51.256;8.176;2023-07-29T14:25:30;21.80;76.40
14727;DHT22;7454;51.256;8.176;2023-07-29T14:27:56;21.70;76.70
14727;DHT22;7454;51.256;8.176;2023-07-29T14:33:20;21.80;76.60
14727;DHT22;7454;51.256;8.176;2023-07-29T14:35:46;21.80;76.50
14727;DHT22;7454;51.256;8.176;2023-07-29T14:38:11;21.80;76.50
14727;DHT22;7454;51.256;8.176;2023-07-29T14:40:37;21.80;76.40
14727;DHT22;7454;51.256;8.176;2023-07-29T14:43:03;21.80;76.10
14727;DHT22;7454;51.256;8.176;2023-07-29T14:45:28;21.90;76.10
14727;DHT22;7454;51.256;8.176;2023-07-29T14:47:54;21.80;76.20
14727;DHT22;7454;51.256;8.176;2023-07-29T14:50:19;21.80;76.00
14727;DHT22;7454;51.256;8.176;2023-07-29T14:52:45;21.80;76.10
14727;DHT22;7454;51.256;8.176;2023-07-29T14:55:11;21.80;76.10
14727;DHT22;7454;51.256;8.176;2023-07-29T14:57:36;21.90;76.20
14727;DHT22;7454;51.256;8.176;2023-07-29T15:00:03;22.00;76.20
14727;DHT22;7454;51.256;8.176;2023-07-29T15:02:29;22.10;76.30
14727;DHT22;7454;51.256;8.176;2023-07-29T15:04:55;22.10;76.20
14727;DHT22;7454;51.256;8.176;2023-07-29T15:07:20;22.10;76.20
14727;DHT22;7454;51.256;8.176;2023-07-29T15:09:46;22.10;76.10
14727;DHT22;7454;51.256;8.176;2023-07-29T15:12:11;22.00;76.10
14727;DHT22;7454;51.256;8.176;2023-07-29T15:14:37;22.00;75.90
14727;DHT22;7454;51.256;8.176;2023-07-29T15:17:03;22.00;75.90
14727;DHT22;7454;51.256;8.176;2023-07-29T15:19:28;21.90;76.20
14727;DHT22;7454;51.256;8.176;2023-07-29T15:21:54;21.90;76.20
14727;DHT22;7454;51.256;8.176;2023-07-29T15:24:20;21.80;76.00
14727;DHT22;7454;51.256;8.176;2023-07-29T15:26:45;21.70;76.10
14727;DHT22;7454;51.256;8.176;2023-07-29T15:29:11;21.70;76.10
14727;DHT22;7454;51.256;8.176;2023-07-29T15:31:37;21.70;76.20
14727;DHT22;7454;51.256;8.176;2023-07-29T15:34:05;21.70;76.60
14727;DHT22;7454;51.256;8.176;2023-07-29T15:36:31;21.80;76.80
14727;DHT22;7454;51.256;8.176;2023-07-29T15:38:56;21.90;76.70
14727;DHT22;7454;51.256;8.176;2023-07-29T15:41:22;21.90;76.60
14727;DHT22;7454;51.256;8.176;2023-07-29T15:43:47;22.00;76.50
14727;DHT22;7454;51.256;8.176;2023-07-29T15:46:13;22.10;76.60
14727;DHT22;7454;51.256;8.176;2023-07-29T15:48:39;22.10;76.40
14727;DHT22;7454;51.256;8.176;2023-07-29T15:51:04;22.00;76.20
14727;DHT22;7454;51.256;8.176;2023-07-29T15:53:31;22.00;76.20
14727;DHT22;7454;51.256;8.176;2023-07-29T15:55:57;21.90;76.10
14727;DHT22;7454;51.256;8.176;2023-07-29T15:58:23;21.90;76.00
14727;DHT22;7454;51.256;8.176;2023-07-29T16:00:48;21.90;75.80
14727;DHT22;7454;51.256;8.176;2023-07-29T16:03:14;21.90;75.80
14727;DHT22;7454;51.256;8.176;2023-07-29T16:05:40;21.90;75.50
14727;DHT22;7454;51.256;8.176;2023-07-29T16:08:05;21.80;75.70